West Salem, Ohio
Current Conditions -  °F | °C
As of 1:23 PM on Sunday 25 Jan 2015 (Local Time) from KBJJ Reporting Station
Light Snow Light Snow  
Wind Chill: 20°   Ceiling: 1200
Heat Index: 30°   Visibility: 1.7mi
Dew Point: 27°   Wind: 13mph
Humidity: 88%   Direction: 50°NE
Pressure: 29.78"   Gusts: NA
Location:  40.97°N, 82.11°W
Report Text: KBJJ 251823Z AUTO 05011KT 1 3/4SM -SN BR FEW008 BKN012 OVC027 M01/M03 A2978 RMK AO2 P0000 T10111028 TSNO
Loading
Personal Weather Stations






























Interactive Weather Map New forecast layout! Learn more

10-Day Weather Forecast

Advertisements
Track Severe Weather on mobile